createdAt,value
2023-01-11T00:00:08.039Z,1.1
2023-01-11T00:05:06.866Z,1
2023-01-11T00:10:06.001Z,2.1
2023-01-11T00:15:05.111Z,1.3
2023-01-11T00:20:04.468Z,1
2023-01-11T00:25:03.344Z,1.8
2023-01-11T00:30:02.456Z,1.7
2023-01-11T00:35:01.584Z,0.8
2023-01-11T00:40:00.680Z,0.9
2023-01-11T00:44:59.765Z,0.8
2023-01-11T00:49:58.887Z,1.7
2023-01-11T00:54:57.998Z,1.5
2023-01-11T00:59:57.106Z,0.6
2023-01-11T01:04:56.219Z,4.2
2023-01-11T01:09:55.330Z,2.1
2023-01-11T01:14:54.504Z,1.8
2023-01-11T01:19:53.546Z,3.2
2023-01-11T01:24:52.683Z,1.1
2023-01-11T01:29:51.779Z,1.1
2023-01-11T01:34:50.816Z,1.2
2023-01-11T01:39:49.919Z,2.6
2023-01-11T01:44:48.993Z,1.3
2023-01-11T01:49:48.076Z,2
2023-01-11T01:54:47.324Z,1
2023-01-11T01:59:46.225Z,1.4
2023-01-11T02:04:45.339Z,1
2023-01-11T02:09:44.440Z,1.6
2023-01-11T02:14:43.537Z,1.6
2023-01-11T02:19:42.604Z,2.5
2023-01-11T02:24:41.693Z,0.6
2023-01-11T02:29:40.790Z,2.6
2023-01-11T02:34:39.889Z,2.2
2023-01-11T02:39:38.981Z,1.6
2023-01-11T02:44:38.046Z,3.7
2023-01-11T02:49:37.140Z,1.1
2023-01-11T02:54:36.239Z,1.8
2023-01-11T02:59:35.350Z,1.3
2023-01-11T03:04:34.461Z,1.4
2023-01-11T03:09:33.539Z,2.6
2023-01-11T03:14:32.654Z,2.2
2023-01-11T03:19:31.743Z,2.8
2023-01-11T03:24:30.843Z,1.6
2023-01-11T03:29:29.914Z,1.5
2023-01-11T03:34:29.003Z,2.5
2023-01-11T03:39:28.095Z,5.2
2023-01-11T03:44:27.241Z,3
2023-01-11T03:49:26.277Z,0.7
2023-01-11T03:54:25.375Z,0.8
2023-01-11T03:59:24.480Z,2.1
2023-01-11T04:04:23.661Z,0.8
2023-01-11T04:09:22.645Z,0.9
2023-01-11T04:14:21.742Z,1
2023-01-11T04:19:20.813Z,1.3
2023-01-11T04:24:19.942Z,0.8
2023-01-11T04:29:19.033Z,3.9
2023-01-11T04:34:18.155Z,0.3
2023-01-11T04:39:17.219Z,1.4
2023-01-11T04:44:16.357Z,1.8
2023-01-11T04:49:15.370Z,0.9
2023-01-11T04:54:14.482Z,1.9
2023-01-11T04:59:13.548Z,2.5
2023-01-11T05:04:13.481Z,2.1
2023-01-11T05:09:11.714Z,6.1
2023-01-11T05:14:10.792Z,2
2023-01-11T05:19:09.861Z,2.1
2023-01-11T05:24:08.949Z,1.1
2023-01-11T05:29:08.004Z,1.1
2023-01-11T05:34:07.054Z,3.1
2023-01-11T05:39:06.153Z,3.1
2023-01-11T05:44:05.192Z,1.8
2023-01-11T05:49:04.228Z,1.5
2023-01-11T05:54:03.347Z,2.1
2023-01-11T05:59:02.365Z,2.2
2023-01-11T06:04:01.404Z,1.4
2023-01-11T06:09:00.453Z,1.4
2023-01-11T06:13:59.540Z,2
2023-01-11T06:18:58.602Z,1.4
2023-01-11T06:23:57.701Z,3.1
2023-01-11T06:28:56.828Z,2.7
2023-01-11T06:33:55.829Z,4
2023-01-11T06:38:54.935Z,1.4
2023-01-11T06:43:54.002Z,2.4
2023-01-11T06:48:53.080Z,4.5
2023-01-11T06:53:52.186Z,2.3
2023-01-11T06:58:51.234Z,5.6
2023-01-11T07:03:50.303Z,4.8
2023-01-11T07:08:49.346Z,4
2023-01-11T07:13:48.468Z,3.2
2023-01-11T07:18:47.498Z,3.6
2023-01-11T07:23:46.588Z,3.3
2023-01-11T07:28:45.667Z,2.9
2023-01-11T07:33:44.749Z,2
2023-01-11T07:38:43.871Z,1.4
2023-01-11T07:43:42.919Z,5.6
2023-01-11T07:48:41.985Z,3.6
2023-01-11T07:53:41.051Z,4.7
2023-01-11T07:58:40.109Z,3.6
2023-01-11T08:03:40.755Z,3.1
2023-01-11T08:08:38.254Z,2.6
2023-01-11T08:13:37.321Z,2.5
2023-01-11T08:18:36.413Z,0.3
2023-01-11T08:23:36.486Z,4.3
2023-01-11T08:28:35.605Z,2.9
2023-01-11T08:33:33.642Z,1.2
2023-01-11T08:38:32.713Z,1.3
2023-01-11T08:43:31.812Z,2.2
2023-01-11T08:48:31.097Z,3.5
2023-01-11T08:53:29.916Z,1.1
2023-01-11T08:58:29.010Z,3.1
2023-01-11T09:03:28.033Z,4.7
2023-01-11T09:08:27.101Z,8.5
2023-01-11T09:13:26.170Z,3.8
2023-01-11T09:18:25.248Z,3.8
2023-01-11T09:23:24.351Z,2
2023-01-11T09:28:23.371Z,4.6
2023-01-11T09:33:22.507Z,4.5
2023-01-11T09:38:21.576Z,7.5
2023-01-11T09:43:20.654Z,4.8
2023-01-11T09:48:19.730Z,3.8
2023-01-11T09:53:18.840Z,2
2023-01-11T09:58:18.941Z,6.1
2023-01-11T10:03:16.996Z,3.3
2023-01-11T10:18:40.979Z,3.5
2023-01-11T10:23:13.412Z,3
2023-01-11T10:28:12.514Z,3.9
2023-01-11T10:33:11.596Z,6.1
2023-01-11T10:38:10.746Z,1.5
2023-01-11T10:43:09.863Z,1.4
2023-01-11T10:48:08.908Z,3.7
2023-01-11T10:53:08.016Z,2.9
2023-01-11T10:58:07.159Z,2.6
2023-01-11T11:03:06.329Z,3.1
2023-01-11T11:08:05.451Z,4.2
2023-01-11T11:13:04.641Z,2.7
2023-01-11T11:18:03.787Z,3.9
2023-01-11T11:23:02.917Z,3
2023-01-11T11:28:02.100Z,4.4
2023-01-11T11:33:01.290Z,3.8
2023-01-11T11:38:00.445Z,5.8
2023-01-11T11:42:59.555Z,5.4
2023-01-11T11:47:58.724Z,5.3
2023-01-11T11:52:57.871Z,5.7
2023-01-11T11:57:57.025Z,3.8
2023-01-11T12:02:56.171Z,3.2
2023-01-11T12:07:55.776Z,4.4
2023-01-11T12:12:54.464Z,5.2
2023-01-11T12:17:53.663Z,5.5
2023-01-11T12:22:52.800Z,5.3
2023-01-11T12:27:51.933Z,6.7
2023-01-11T12:32:51.127Z,5.1
2023-01-11T12:37:50.288Z,3.6
2023-01-11T12:42:49.454Z,7.8
2023-01-11T12:47:48.655Z,4.7
2023-01-11T12:52:47.849Z,6.3
2023-01-11T12:57:47.001Z,6.7
2023-01-11T13:02:46.291Z,3.7
2023-01-11T13:07:45.377Z,5.8
2023-01-11T13:12:44.597Z,3.8
2023-01-11T13:17:43.764Z,6.7
2023-01-11T13:22:42.927Z,6.4
2023-01-11T13:27:42.140Z,6
2023-01-11T13:32:41.311Z,9.3
2023-01-11T13:37:40.477Z,7.7
2023-01-11T13:42:39.632Z,5.2
2023-01-11T13:47:38.821Z,4.6
2023-01-11T13:52:37.971Z,6.8
2023-01-11T13:57:37.147Z,6.1
2023-01-11T14:02:38.308Z,4.1
2023-01-11T14:07:35.407Z,6.4
2023-01-11T14:12:34.575Z,10.8
2023-01-11T14:17:33.720Z,6.7
2023-01-11T14:22:32.877Z,7.5
2023-01-11T14:27:32.034Z,8
2023-01-11T14:32:31.152Z,6.6
2023-01-11T14:37:30.328Z,5.5
2023-01-11T14:42:32.164Z,4.4
2023-01-11T14:47:28.610Z,7.3
2023-01-11T14:52:39.154Z,14.7
2023-01-11T14:57:26.947Z,9.4
2023-01-11T15:02:26.086Z,10.4
2023-01-11T15:07:25.230Z,15.8
2023-01-11T15:12:24.315Z,12.2
2023-01-11T15:17:23.482Z,8.4
2023-01-11T15:22:22.629Z,10.2
2023-01-11T15:27:21.754Z,20
2023-01-11T15:32:20.845Z,13.6
2023-01-11T15:37:19.953Z,13.5
2023-01-11T15:42:19.051Z,13.8
2023-01-11T15:47:18.236Z,11
2023-01-11T15:52:17.343Z,15
2023-01-11T15:57:16.448Z,23.9
2023-01-11T16:02:15.524Z,33.9
2023-01-11T16:07:14.691Z,27.5
2023-01-11T16:12:13.799Z,40.5
2023-01-11T16:17:12.904Z,68.7
2023-01-11T16:22:12.029Z,38.2
2023-01-11T16:27:11.174Z,44.6
2023-01-11T16:32:10.234Z,66.2
2023-01-11T16:37:09.372Z,61.1
2023-01-11T16:42:08.429Z,61.4
2023-01-11T16:47:07.524Z,52.7
2023-01-11T16:52:06.656Z,56.4
2023-01-11T16:57:05.726Z,60.7
2023-01-11T17:02:04.834Z,62.2
2023-01-11T17:07:03.854Z,59.4
2023-01-11T17:12:02.905Z,54
2023-01-11T17:17:02.377Z,51.3
2023-01-11T17:22:01.042Z,44.2
2023-01-11T17:27:00.319Z,62
2023-01-11T17:31:59.394Z,57.2
2023-01-11T17:36:58.268Z,72.1
2023-01-11T17:41:57.338Z,72.6
2023-01-11T17:46:56.402Z,71.7
2023-01-11T17:51:55.498Z,71
2023-01-11T17:56:54.608Z,94.2
2023-01-11T18:01:53.683Z,92.7
2023-01-11T18:06:52.764Z,96.2
2023-01-11T18:11:51.878Z,99.4
2023-01-11T18:16:51.119Z,113.4
2023-01-11T18:21:50.015Z,133.5
2023-01-11T18:26:49.169Z,155.6
2023-01-11T18:31:48.252Z,187.2
2023-01-11T18:36:47.344Z,147.1
2023-01-11T18:41:46.448Z,165.9
2023-01-11T18:46:45.503Z,204.6
2023-01-11T18:51:44.683Z,152.4
2023-01-11T18:56:43.731Z,171.5
2023-01-11T19:01:56.491Z,168.3
2023-01-11T19:06:41.936Z,149.4
2023-01-11T19:11:41.046Z,145.9
2023-01-11T19:16:40.149Z,169.5
2023-01-11T19:20:15.011Z,169.5
2023-01-11T19:21:39.209Z,122.5
2023-01-11T19:26:38.337Z,97
2023-01-11T19:31:37.406Z,104.5
2023-01-11T19:36:36.526Z,96.1
2023-01-11T19:41:35.675Z,104.4
2023-01-11T19:46:34.814Z,109.7
2023-01-11T19:51:33.905Z,118.9
2023-01-11T19:56:32.955Z,108.4
2023-01-11T20:01:32.100Z,85.4
2023-01-11T20:06:31.164Z,98.3
2023-01-11T20:11:30.269Z,85.3
2023-01-11T20:16:29.340Z,82.8
2023-01-11T20:21:28.429Z,85.3
2023-01-11T20:26:27.533Z,93.2
2023-01-11T20:31:26.695Z,90
2023-01-11T20:36:25.718Z,83.9
2023-01-11T20:41:24.820Z,94.3
2023-01-11T20:46:24.032Z,105.3
2023-01-11T20:51:23.025Z,93.8
2023-01-11T20:56:22.104Z,100.1
2023-01-11T21:01:21.221Z,83.3
2023-01-11T21:06:20.280Z,94.1
2023-01-11T21:11:19.275Z,78
2023-01-11T21:16:18.430Z,88.2
2023-01-11T21:21:17.506Z,79.7
2023-01-11T21:26:16.561Z,80.1
2023-01-11T21:31:19.296Z,73.4
2023-01-11T21:36:14.614Z,86.8
2023-01-11T21:41:13.670Z,85.1
2023-01-11T21:46:13.788Z,80
2023-01-11T21:51:11.774Z,74.1
2023-01-11T21:56:10.840Z,86.3
2023-01-11T22:01:10.016Z,67.8
2023-01-11T22:06:08.964Z,72
2023-01-11T22:11:08.011Z,63.8
2023-01-11T22:16:07.111Z,74.2
2023-01-11T22:21:06.404Z,63.3
2023-01-11T22:26:05.190Z,66.5
2023-01-11T22:31:04.429Z,64.6
2023-01-11T22:36:03.309Z,74.2
2023-01-11T22:41:02.412Z,73.6
2023-01-11T22:46:01.600Z,79.5
2023-01-11T22:51:00.580Z,80.8
2023-01-11T22:55:59.637Z,77.6
2023-01-11T23:00:58.772Z,88.7
2023-01-11T23:05:57.918Z,81.2
2023-01-11T23:10:56.887Z,75.6
2023-01-11T23:15:55.988Z,61.5
2023-01-11T23:20:55.056Z,63.3
2023-01-11T23:25:54.073Z,61.7
2023-01-11T23:30:53.445Z,55
2023-01-11T23:35:52.254Z,44.3
2023-01-11T23:40:51.304Z,40.9
2023-01-11T23:45:51.433Z,41.5
2023-01-11T23:50:49.468Z,39.9
2023-01-11T23:55:48.510Z,32.5
